createdAt,value
2022-07-25T00:00:10.117Z,46.70
2022-07-25T00:02:38.418Z,46.80
2022-07-25T00:05:07.134Z,46.80
2022-07-25T00:07:35.023Z,46.60
2022-07-25T00:10:04.654Z,46.80
2022-07-25T00:12:32.637Z,47.00
2022-07-25T00:15:00.659Z,47.10
2022-07-25T00:17:28.556Z,47.30
2022-07-25T00:19:56.529Z,47.10
2022-07-25T00:22:24.471Z,47.20
2022-07-25T00:24:52.339Z,47.10
2022-07-25T00:27:21.569Z,47.40
2022-07-25T00:29:49.455Z,47.40
2022-07-25T00:32:17.466Z,47.60
2022-07-25T00:34:45.360Z,47.70
2022-07-25T00:37:13.228Z,47.50
2022-07-25T00:39:41.128Z,47.50
2022-07-25T00:42:09.169Z,47.50
2022-07-25T00:44:38.525Z,47.60
2022-07-25T00:47:06.476Z,47.60
2022-07-25T00:49:34.340Z,47.90
2022-07-25T00:52:02.441Z,47.80
2022-07-25T00:54:30.762Z,48.90
2022-07-25T00:56:58.728Z,47.70
2022-07-25T00:59:26.659Z,47.60
2022-07-25T01:01:56.062Z,47.70
2022-07-25T01:04:24.034Z,47.60
2022-07-25T01:06:52.356Z,47.80
2022-07-25T01:09:21.517Z,47.90
2022-07-25T01:11:49.640Z,47.70
2022-07-25T01:14:17.517Z,47.70
2022-07-25T01:16:45.406Z,47.70
2022-07-25T01:19:14.698Z,47.80
2022-07-25T01:21:43.991Z,47.80
2022-07-25T01:24:12.625Z,47.90
2022-07-25T01:26:40.880Z,48.00
2022-07-25T01:29:08.745Z,48.00
2022-07-25T01:31:36.769Z,48.00
2022-07-25T01:34:05.209Z,48.20
2022-07-25T01:36:33.313Z,48.30
2022-07-25T01:39:02.536Z,48.20
2022-07-25T01:41:30.481Z,48.50
2022-07-25T01:43:58.421Z,48.50
2022-07-25T01:46:26.395Z,48.40
2022-07-25T01:48:54.365Z,48.40
2022-07-25T01:51:22.450Z,48.30
2022-07-25T01:53:54.252Z,48.80
2022-07-25T01:56:23.495Z,48.30
2022-07-25T01:58:51.773Z,48.50
2022-07-25T02:01:21.848Z,48.60
2022-07-25T02:03:50.277Z,48.50
2022-07-25T02:06:19.434Z,48.40
2022-07-25T02:08:47.326Z,48.30
2022-07-25T02:11:16.003Z,49.50
2022-07-25T02:13:45.584Z,49.00
2022-07-25T02:16:13.596Z,48.80
2022-07-25T02:18:41.537Z,48.90
2022-07-25T02:21:14.457Z,48.70
2022-07-25T02:23:43.338Z,48.80
2022-07-25T02:26:11.894Z,49.00
2022-07-25T02:28:40.095Z,49.20
2022-07-25T02:31:10.091Z,49.50
2022-07-25T02:33:38.450Z,49.40
2022-07-25T02:36:06.723Z,49.40
2022-07-25T02:38:34.651Z,49.40
2022-07-25T02:41:02.640Z,49.70
2022-07-25T02:43:30.989Z,49.60
2022-07-25T02:45:59.010Z,49.40
2022-07-25T02:48:28.383Z,48.90
2022-07-25T02:50:56.384Z,49.10
2022-07-25T02:53:40.251Z,48.90
2022-07-25T02:56:12.167Z,48.00
2022-07-25T02:58:42.193Z,47.80
2022-07-25T03:01:10.523Z,47.60
2022-07-25T03:03:39.907Z,47.60
2022-07-25T03:06:08.222Z,47.70
2022-07-25T03:08:36.092Z,47.90
2022-07-25T03:11:04.101Z,47.90
2022-07-25T03:13:33.085Z,48.50
2022-07-25T03:16:01.356Z,48.60
2022-07-25T03:18:29.368Z,48.40
2022-07-25T03:20:58.576Z,48.50
2022-07-25T03:23:27.325Z,48.70
2022-07-25T03:25:55.342Z,48.90
2022-07-25T03:28:24.597Z,49.20
2022-07-25T03:30:52.834Z,49.00
2022-07-25T03:33:21.002Z,49.00
2022-07-25T03:35:48.859Z,49.00
2022-07-25T03:38:18.117Z,49.20
2022-07-25T03:40:46.018Z,49.30
2022-07-25T03:43:13.991Z,49.50
2022-07-25T03:45:41.907Z,49.60
2022-07-25T03:48:09.796Z,49.60
2022-07-25T03:50:37.732Z,49.50
2022-07-25T03:53:05.638Z,49.60
2022-07-25T03:55:35.480Z,50.80
2022-07-25T03:58:03.344Z,49.40
2022-07-25T04:00:31.230Z,49.60
2022-07-25T04:02:59.111Z,49.50
2022-07-25T04:05:27.303Z,49.60
2022-07-25T04:07:55.266Z,49.60
2022-07-25T04:10:23.307Z,49.50
2022-07-25T04:12:52.792Z,49.50
2022-07-25T04:15:20.709Z,50.20
2022-07-25T04:17:48.601Z,50.20
2022-07-25T04:20:16.716Z,50.40
2022-07-25T04:22:46.996Z,50.10
2022-07-25T04:25:15.261Z,50.00
2022-07-25T04:27:43.423Z,50.50
2022-07-25T04:30:24.187Z,50.50
2022-07-25T04:32:53.115Z,50.60
2022-07-25T04:35:21.139Z,50.50
2022-07-25T04:37:49.290Z,50.70
2022-07-25T04:40:17.373Z,50.80
2022-07-25T04:42:45.317Z,50.80
2022-07-25T04:45:17.557Z,50.70
2022-07-25T04:47:46.010Z,50.60
2022-07-25T04:50:14.008Z,50.60
2022-07-25T04:52:42.023Z,50.60
2022-07-25T04:55:10.679Z,50.40
2022-07-25T04:57:38.604Z,50.40
2022-07-25T05:00:08.596Z,50.50
2022-07-25T05:02:38.336Z,50.20
2022-07-25T05:05:08.470Z,50.00
2022-07-25T05:07:49.180Z,49.90
2022-07-25T05:10:17.165Z,49.80
2022-07-25T05:12:45.124Z,49.20
2022-07-25T05:15:13.572Z,49.60
2022-07-25T05:17:43.080Z,49.30
2022-07-25T05:20:12.421Z,48.90
2022-07-25T05:22:40.790Z,48.70
2022-07-25T05:25:10.593Z,49.00
2022-07-25T05:27:39.098Z,49.10
2022-07-25T05:30:09.702Z,49.50
2022-07-25T05:32:37.673Z,49.70
2022-07-25T05:35:08.801Z,50.20
2022-07-25T05:37:37.311Z,50.20
2022-07-25T05:40:06.211Z,51.00
2022-07-25T05:42:34.205Z,51.90
2022-07-25T05:45:02.417Z,51.30
2022-07-25T05:47:30.288Z,51.30
2022-07-25T05:49:58.160Z,52.50
2022-07-25T05:52:27.448Z,52.60
2022-07-25T05:54:55.393Z,52.20
2022-07-25T05:57:23.265Z,51.80
2022-07-25T05:59:51.226Z,52.10
2022-07-25T06:02:19.289Z,52.20
2022-07-25T06:04:47.261Z,52.60
2022-07-25T06:07:17.024Z,52.40
2022-07-25T06:09:46.563Z,52.40
2022-07-25T06:12:14.794Z,52.80
2022-07-25T06:14:42.832Z,52.90
2022-07-25T06:17:10.833Z,53.50
2022-07-25T06:19:38.747Z,52.70
2022-07-25T06:22:08.045Z,53.40
2022-07-25T06:24:36.139Z,54.30
2022-07-25T06:27:05.696Z,54.30
2022-07-25T06:29:33.691Z,53.90
2022-07-25T06:32:01.665Z,54.70
2022-07-25T06:34:29.807Z,53.90
2022-07-25T06:36:58.168Z,53.80
2022-07-25T06:39:26.260Z,53.90
2022-07-25T06:41:54.119Z,53.50
2022-07-25T06:44:23.366Z,53.80
2022-07-25T06:46:51.313Z,54.50
2022-07-25T06:49:19.409Z,53.70
2022-07-25T06:51:47.321Z,54.00
2022-07-25T06:54:15.649Z,55.20
2022-07-25T06:56:43.512Z,54.90
2022-07-25T06:59:11.700Z,54.50
2022-07-25T07:01:41.046Z,54.80
2022-07-25T07:04:09.337Z,54.80
2022-07-25T07:06:38.655Z,54.70
2022-07-25T07:09:07.872Z,55.20
2022-07-25T07:11:35.938Z,55.90
2022-07-25T07:14:04.270Z,55.30
2022-07-25T07:16:32.949Z,57.30
2022-07-25T07:19:02.257Z,56.40
2022-07-25T07:21:30.248Z,56.50
2022-07-25T07:23:59.009Z,56.00
2022-07-25T07:26:26.943Z,55.90
2022-07-25T07:28:56.013Z,55.30
2022-07-25T07:31:24.010Z,55.20
2022-07-25T07:33:52.059Z,57.00
2022-07-25T07:36:21.776Z,57.00
2022-07-25T07:38:49.786Z,55.40
2022-07-25T07:41:17.694Z,55.40
2022-07-25T07:43:45.610Z,55.80
2022-07-25T07:46:13.653Z,55.90
2022-07-25T07:48:41.661Z,55.20
2022-07-25T07:51:09.576Z,54.60
2022-07-25T07:53:56.285Z,54.70
2022-07-25T07:56:24.247Z,55.60
2022-07-25T07:58:52.125Z,54.60
2022-07-25T08:01:20.061Z,53.90
2022-07-25T08:03:48.025Z,53.80
2022-07-25T08:06:16.082Z,53.80
2022-07-25T08:08:45.305Z,53.70
2022-07-25T08:11:13.200Z,54.60
2022-07-25T08:13:41.099Z,54.00
2022-07-25T08:16:11.808Z,53.80
2022-07-25T08:18:39.769Z,54.00
2022-07-25T08:21:09.030Z,53.90
2022-07-25T08:23:38.957Z,54.20
2022-07-25T08:26:08.977Z,54.00
2022-07-25T08:28:36.900Z,54.10
2022-07-25T08:31:04.927Z,54.10
2022-07-25T08:33:32.978Z,53.80
2022-07-25T08:36:01.129Z,53.60
2022-07-25T08:38:30.065Z,53.60
2022-07-25T08:40:59.756Z,54.00
2022-07-25T08:43:32.917Z,53.90
2022-07-25T08:46:02.925Z,53.80
2022-07-25T08:48:30.944Z,53.60
2022-07-25T08:51:00.365Z,53.70
2022-07-25T08:53:33.195Z,54.20
2022-07-25T08:56:08.006Z,53.70
2022-07-25T08:58:41.441Z,53.40
2022-07-25T09:01:09.563Z,53.50
2022-07-25T09:03:37.549Z,53.90
2022-07-25T09:06:18.654Z,53.40
2022-07-25T09:08:54.415Z,53.30
2022-07-25T09:11:29.712Z,54.00
2022-07-25T09:14:07.096Z,53.60
2022-07-25T09:16:40.119Z,53.90
2022-07-25T09:19:11.803Z,53.60
2022-07-25T09:21:40.885Z,53.40
2022-07-25T09:24:10.314Z,54.30
2022-07-25T09:26:46.219Z,53.90
2022-07-25T09:29:23.893Z,54.00
2022-07-25T09:31:52.906Z,54.40
2022-07-25T09:34:38.068Z,53.60
2022-07-25T09:37:09.056Z,53.30
2022-07-25T09:39:45.815Z,53.10
2022-07-25T09:42:19.268Z,53.00
2022-07-25T09:45:00.427Z,53.20
2022-07-25T09:47:28.864Z,52.90
2022-07-25T09:49:57.097Z,53.50
2022-07-25T09:52:25.090Z,52.40
2022-07-25T09:54:54.702Z,52.00
2022-07-25T09:57:23.551Z,52.30
2022-07-25T09:59:53.914Z,52.30
2022-07-25T10:02:33.908Z,51.90
2022-07-25T10:05:14.112Z,51.90
2022-07-25T10:07:46.040Z,52.20
2022-07-25T10:10:24.928Z,52.30
2022-07-25T10:13:11.035Z,51.90
2022-07-25T10:15:46.628Z,51.80
2022-07-25T10:18:15.908Z,52.00
2022-07-25T10:20:45.187Z,52.10
2022-07-25T10:23:24.496Z,52.40
2022-07-25T10:26:11.214Z,52.10
2022-07-25T10:28:42.832Z,52.40
2022-07-25T10:31:24.242Z,52.50
2022-07-25T10:33:53.920Z,52.50
2022-07-25T10:36:23.368Z,52.50
2022-07-25T10:38:53.509Z,52.00
2022-07-25T10:41:26.976Z,51.90
2022-07-25T10:43:58.772Z,51.40
2022-07-25T10:46:30.833Z,51.90
2022-07-25T10:49:11.208Z,52.20
2022-07-25T10:51:41.785Z,52.20
2022-07-25T10:54:14.497Z,52.30
2022-07-25T10:56:53.975Z,52.40
2022-07-25T10:59:33.950Z,52.00
2022-07-25T11:02:04.660Z,52.30
2022-07-25T11:04:32.697Z,51.90
2022-07-25T11:07:09.791Z,52.00
2022-07-25T11:09:38.067Z,52.30
2022-07-25T11:12:06.755Z,52.00
2022-07-25T11:14:37.441Z,51.70
2022-07-25T11:17:15.212Z,51.90
2022-07-25T11:19:44.693Z,51.30
2022-07-25T11:22:13.172Z,51.20
2022-07-25T11:24:42.977Z,50.00
2022-07-25T11:27:13.372Z,49.60
2022-07-25T11:29:42.061Z,49.80
2022-07-25T11:32:12.327Z,49.10
2022-07-25T11:34:44.625Z,48.80
2022-07-25T11:37:14.597Z,48.10
2022-07-25T11:39:44.538Z,48.90
2022-07-25T11:42:16.180Z,48.60
2022-07-25T11:44:47.887Z,48.80
2022-07-25T11:47:27.629Z,48.10
2022-07-25T11:49:58.413Z,48.70
2022-07-25T11:52:29.756Z,48.50
2022-07-25T11:55:00.110Z,48.50
2022-07-25T11:57:30.673Z,48.70
2022-07-25T12:00:00.221Z,48.10
2022-07-25T12:02:31.083Z,48.20
2022-07-25T12:05:04.049Z,48.20
2022-07-25T12:07:44.559Z,47.70
2022-07-25T12:10:15.667Z,46.50
2022-07-25T12:12:51.617Z,46.30
2022-07-25T12:15:21.895Z,46.10
2022-07-25T12:17:50.723Z,46.60
2022-07-25T12:20:21.296Z,45.70
2022-07-25T12:22:50.375Z,46.30
2022-07-25T12:25:18.776Z,46.20
2022-07-25T12:27:46.882Z,45.90
2022-07-25T12:30:15.659Z,46.00
2022-07-25T12:32:43.826Z,46.40
2022-07-25T12:35:14.500Z,46.70
2022-07-25T12:37:44.338Z,46.30
2022-07-25T12:40:14.189Z,45.90
2022-07-25T12:42:42.191Z,46.10
2022-07-25T12:45:10.994Z,45.80
2022-07-25T12:47:38.941Z,46.20
2022-07-25T12:50:07.942Z,46.00
2022-07-25T12:52:36.050Z,46.30
2022-07-25T12:55:06.582Z,45.40
2022-07-25T12:57:34.979Z,45.40
2022-07-25T13:00:03.148Z,45.80
2022-07-25T13:02:31.081Z,45.60
2022-07-25T13:04:59.085Z,46.10
2022-07-25T13:07:27.088Z,46.00
2022-07-25T13:09:55.135Z,46.20
2022-07-25T13:12:24.461Z,45.70
2022-07-25T13:14:52.392Z,45.00
2022-07-25T13:17:23.631Z,45.50
2022-07-25T13:19:55.398Z,46.40
2022-07-25T13:22:23.367Z,46.40
2022-07-25T13:24:51.371Z,46.20
2022-07-25T13:27:20.018Z,46.30
2022-07-25T13:29:53.892Z,46.20
2022-07-25T13:32:22.199Z,46.30
2022-07-25T13:34:50.111Z,46.40
2022-07-25T13:37:18.007Z,45.80
2022-07-25T13:39:46.012Z,46.40
2022-07-25T13:42:13.930Z,46.30
2022-07-25T13:44:41.812Z,45.20
2022-07-25T13:47:11.218Z,44.80
2022-07-25T13:49:39.300Z,44.40
2022-07-25T13:52:07.801Z,43.40
2022-07-25T13:54:35.745Z,43.10
2022-07-25T13:57:04.212Z,43.70
2022-07-25T13:59:32.083Z,43.90
2022-07-25T14:02:00.311Z,44.50
2022-07-25T14:04:30.257Z,44.40
2022-07-25T14:06:58.384Z,45.20
2022-07-25T14:09:26.372Z,45.30
2022-07-25T14:11:54.383Z,46.00
2022-07-25T14:14:22.312Z,46.00
2022-07-25T14:16:50.308Z,46.60
2022-07-25T14:19:18.364Z,46.40
2022-07-25T14:21:47.647Z,45.30
2022-07-25T14:24:15.544Z,46.00
2022-07-25T14:26:43.463Z,45.70
2022-07-25T14:29:12.190Z,44.40
2022-07-25T14:31:41.128Z,44.40
2022-07-25T14:34:09.125Z,44.30
2022-07-25T14:36:37.560Z,43.60
2022-07-25T14:39:07.202Z,44.60
2022-07-25T14:41:35.545Z,45.00
2022-07-25T14:44:03.486Z,45.90
2022-07-25T14:46:31.390Z,46.10
2022-07-25T14:48:59.647Z,46.30
2022-07-25T14:51:28.499Z,46.20
2022-07-25T14:53:56.373Z,46.10
2022-07-25T14:56:25.669Z,47.10
2022-07-25T14:58:53.546Z,47.50
2022-07-25T15:01:24.382Z,47.50
2022-07-25T15:03:53.479Z,47.80
2022-07-25T15:06:24.622Z,47.30
2022-07-25T15:08:56.796Z,47.20
2022-07-25T15:11:26.082Z,47.00
2022-07-25T15:13:53.997Z,47.30
2022-07-25T15:16:22.086Z,47.60
2022-07-25T15:19:14.600Z,48.20
2022-07-25T15:21:38.570Z,48.00
2022-07-25T15:24:07.553Z,47.90
2022-07-25T15:26:37.873Z,48.00
2022-07-25T15:29:09.629Z,47.80
2022-07-25T15:31:38.362Z,47.80
2022-07-25T15:34:06.361Z,48.40
2022-07-25T15:36:34.259Z,48.20
2022-07-25T15:39:02.108Z,48.90
2022-07-25T15:41:31.028Z,49.20
2022-07-25T15:44:00.688Z,48.90
2022-07-25T15:46:29.027Z,48.90
2022-07-25T15:48:57.860Z,48.90
2022-07-25T15:51:25.942Z,49.00
2022-07-25T15:53:53.820Z,48.90
2022-07-25T15:56:21.867Z,49.20
2022-07-25T15:58:50.428Z,49.50
2022-07-25T16:01:20.073Z,50.10
2022-07-25T16:03:48.111Z,49.90
2022-07-25T16:06:20.502Z,50.10
2022-07-25T16:08:50.741Z,50.10
2022-07-25T16:11:18.952Z,50.70
2022-07-25T16:13:46.843Z,51.20
2022-07-25T16:16:14.783Z,50.80
2022-07-25T16:18:44.219Z,51.30
2022-07-25T16:21:12.289Z,50.80
2022-07-25T16:23:44.965Z,50.80
2022-07-25T16:26:13.940Z,50.80
2022-07-25T16:28:41.927Z,51.00
2022-07-25T16:31:10.116Z,51.30
2022-07-25T16:33:38.125Z,51.80
2022-07-25T16:36:08.207Z,52.10
2022-07-25T16:38:36.105Z,52.40
2022-07-25T16:41:04.116Z,51.80
2022-07-25T16:43:32.021Z,51.80
2022-07-25T16:45:59.913Z,51.70
2022-07-25T16:48:27.900Z,51.70
2022-07-25T16:50:55.808Z,52.00
2022-07-25T16:53:25.419Z,51.70
2022-07-25T16:55:53.344Z,52.10
2022-07-25T16:58:21.254Z,51.90
2022-07-25T17:00:49.189Z,53.40
2022-07-25T17:03:17.143Z,52.00
2022-07-25T17:05:46.888Z,52.10
2022-07-25T17:08:14.773Z,52.10
2022-07-25T17:10:44.412Z,52.10
2022-07-25T17:13:12.338Z,53.00
2022-07-25T17:15:40.487Z,52.70
2022-07-25T17:18:08.426Z,52.90
2022-07-25T17:20:36.461Z,52.50
2022-07-25T17:23:04.675Z,52.90
2022-07-25T17:25:32.886Z,52.20
2022-07-25T17:28:02.618Z,52.20
2022-07-25T17:30:30.560Z,52.70
2022-07-25T17:32:59.597Z,52.50
2022-07-25T17:35:27.684Z,52.30
2022-07-25T17:37:55.592Z,52.20
2022-07-25T17:40:23.683Z,52.40
2022-07-25T17:42:51.653Z,52.40
2022-07-25T17:45:21.023Z,52.70
2022-07-25T17:47:49.034Z,52.40
2022-07-25T17:50:17.508Z,53.80
2022-07-25T17:52:45.517Z,53.10
2022-07-25T17:55:13.566Z,52.90
2022-07-25T17:57:42.106Z,53.30
2022-07-25T18:00:11.771Z,52.70
2022-07-25T18:02:41.657Z,53.30
2022-07-25T18:05:09.948Z,53.30
2022-07-25T18:07:40.699Z,53.40
2022-07-25T18:10:09.130Z,53.30
2022-07-25T18:12:37.020Z,53.10
2022-07-25T18:15:05.540Z,52.90
2022-07-25T18:17:33.553Z,52.90
2022-07-25T18:20:02.880Z,53.60
2022-07-25T18:22:30.774Z,53.50
2022-07-25T18:24:58.673Z,53.30
2022-07-25T18:27:26.965Z,54.30
2022-07-25T18:29:54.883Z,53.90
2022-07-25T18:32:22.771Z,53.60
2022-07-25T18:34:50.755Z,54.00
2022-07-25T18:37:20.134Z,53.80
2022-07-25T18:39:48.057Z,54.30
2022-07-25T18:42:15.958Z,53.50
2022-07-25T18:44:43.927Z,53.40
2022-07-25T18:47:11.975Z,53.30
2022-07-25T18:49:41.986Z,53.20
2022-07-25T18:52:09.863Z,53.30
2022-07-25T18:54:39.163Z,53.30
2022-07-25T18:57:07.144Z,54.10
2022-07-25T18:59:35.143Z,53.90
2022-07-25T19:02:03.203Z,54.00
2022-07-25T19:04:31.159Z,54.00
2022-07-25T19:06:59.621Z,53.80
2022-07-25T19:09:27.528Z,54.00
2022-07-25T19:11:57.040Z,54.50
2022-07-25T19:14:27.218Z,54.50
2022-07-25T19:16:55.490Z,54.20
2022-07-25T19:19:23.434Z,54.20
2022-07-25T19:21:51.466Z,54.30
2022-07-25T19:24:19.376Z,54.80
2022-07-25T19:26:48.318Z,54.70
2022-07-25T19:29:18.139Z,54.60
2022-07-25T19:31:46.444Z,54.80
2022-07-25T19:34:14.393Z,54.80
2022-07-25T19:36:45.723Z,55.50
2022-07-25T19:39:14.453Z,54.90
2022-07-25T19:41:46.699Z,54.90
2022-07-25T19:44:15.247Z,55.20
2022-07-25T19:46:44.860Z,55.70
2022-07-25T19:49:13.084Z,55.90
2022-07-25T19:51:41.196Z,55.30
2022-07-25T19:54:10.020Z,56.00
2022-07-25T19:56:38.207Z,55.50
2022-07-25T19:59:06.273Z,55.80
2022-07-25T20:01:35.911Z,55.40
2022-07-25T20:04:08.806Z,56.10
2022-07-25T20:06:37.368Z,56.10
2022-07-25T20:09:05.787Z,55.70
2022-07-25T20:11:34.597Z,55.60
2022-07-25T20:14:02.546Z,55.20
2022-07-25T20:16:30.716Z,55.30
2022-07-25T20:18:58.722Z,55.50
2022-07-25T20:21:28.021Z,56.00
2022-07-25T20:23:55.973Z,55.60
2022-07-25T20:26:24.057Z,55.90
2022-07-25T20:28:52.125Z,56.20
2022-07-25T20:31:22.206Z,56.20
2022-07-25T20:33:50.231Z,55.80
2022-07-25T20:36:18.569Z,56.40
2022-07-25T20:38:47.949Z,56.00
2022-07-25T20:41:16.753Z,56.70
2022-07-25T20:43:45.050Z,56.30
2022-07-25T20:46:12.994Z,56.00
2022-07-25T20:48:40.965Z,55.80
2022-07-25T20:51:08.953Z,56.10
2022-07-25T20:53:36.959Z,56.90
2022-07-25T20:56:06.494Z,56.90
2022-07-25T20:58:34.456Z,57.60
2022-07-25T21:01:02.358Z,56.70
2022-07-25T21:03:30.974Z,56.40
2022-07-25T21:06:00.019Z,56.30
2022-07-25T21:08:27.941Z,56.50
2022-07-25T21:11:53.063Z,56.50
2022-07-25T21:14:20.953Z,56.80
2022-07-25T21:16:48.979Z,56.50
2022-07-25T21:19:17.002Z,57.00
2022-07-25T21:21:45.013Z,56.80
2022-07-25T21:24:12.973Z,56.60
2022-07-25T21:26:42.236Z,57.10
2022-07-25T21:29:10.653Z,56.70
2022-07-25T21:31:39.130Z,56.70
2022-07-25T21:34:07.216Z,56.70
2022-07-25T21:36:35.144Z,57.30
2022-07-25T21:39:03.084Z,57.00
2022-07-25T21:41:31.529Z,57.10
2022-07-25T21:44:00.802Z,56.80
2022-07-25T21:46:28.735Z,56.80
2022-07-25T21:49:40.643Z,57.00
2022-07-25T21:52:07.896Z,57.40
2022-07-25T21:54:36.340Z,57.10
2022-07-25T21:57:04.510Z,56.70
2022-07-25T21:59:33.772Z,57.40
2022-07-25T22:02:01.876Z,58.10
2022-07-25T22:04:29.770Z,57.40
2022-07-25T22:06:57.820Z,58.10
2022-07-25T22:09:25.702Z,57.70
2022-07-25T22:11:55.178Z,57.20
2022-07-25T22:14:23.148Z,57.40
2022-07-25T22:16:52.642Z,57.60
2022-07-25T22:19:22.500Z,57.40
2022-07-25T22:21:50.812Z,57.10
2022-07-25T22:24:18.688Z,57.00
2022-07-25T22:26:46.597Z,56.70
2022-07-25T22:29:14.496Z,57.50
2022-07-25T22:31:42.414Z,57.10
2022-07-25T22:34:11.672Z,58.10
2022-07-25T22:36:39.567Z,58.40
2022-07-25T22:39:07.762Z,58.30
2022-07-25T22:41:35.859Z,58.20
2022-07-25T22:44:03.860Z,58.10
2022-07-25T22:46:32.713Z,58.00
2022-07-25T22:49:00.727Z,57.70
2022-07-25T22:51:30.594Z,57.10
2022-07-25T22:53:58.954Z,57.00
2022-07-25T22:56:27.629Z,56.70
2022-07-25T22:58:55.891Z,56.70
2022-07-25T23:01:24.053Z,57.40
2022-07-25T23:03:52.246Z,57.10
2022-07-25T23:06:21.913Z,57.50
2022-07-25T23:08:51.453Z,56.80
2022-07-25T23:11:19.457Z,57.00
2022-07-25T23:13:47.384Z,56.60
2022-07-25T23:16:15.441Z,56.60
2022-07-25T23:18:43.646Z,56.50
2022-07-25T23:21:11.701Z,56.90
2022-07-25T23:23:39.616Z,56.80
2022-07-25T23:26:08.865Z,57.50
2022-07-25T23:28:36.844Z,57.70
2022-07-25T23:31:04.962Z,58.10
2022-07-25T23:33:33.031Z,58.30
2022-07-25T23:36:00.914Z,59.00
2022-07-25T23:38:28.925Z,57.90
2022-07-25T23:40:56.933Z,59.10
2022-07-25T23:43:38.616Z,57.50
2022-07-25T23:46:14.347Z,58.00
2022-07-25T23:48:43.068Z,58.10
2022-07-25T23:51:10.993Z,57.50
2022-07-25T23:53:39.020Z,57.20
2022-07-25T23:56:07.121Z,57.10
2022-07-25T23:58:36.377Z,56.80
